sensor_id;sensor_type;location;lat;lon;timestamp;temperature;humidity
68842;SHT35;55849;48.482;2.332;2024-02-04T00:01:05;12.18;76.44
68842;SHT35;55849;48.482;2.332;2024-02-04T00:04:07;12.19;76.21
68842;SHT35;55849;48.482;2.332;2024-02-04T00:07:08;12.16;76.38
68842;SHT35;55849;48.482;2.332;2024-02-04T00:10:10;12.16;76.37
68842;SHT35;55849;48.482;2.332;2024-02-04T00:13:13;12.16;76.37
68842;SHT35;55849;48.482;2.332;2024-02-04T00:16:15;12.16;76.48
68842;SHT35;55849;48.482;2.332;2024-02-04T00:19:17;12.16;76.29
68842;SHT35;55849;48.482;2.332;2024-02-04T00:22:18;12.14;76.35
68842;SHT35;55849;48.482;2.332;2024-02-04T00:25:20;12.15;76.47
68842;SHT35;55849;48.482;2.332;2024-02-04T00:28:23;12.16;76.53
68842;SHT35;55849;48.482;2.332;2024-02-04T00:31:24;12.14;76.44
68842;SHT35;55849;48.482;2.332;2024-02-04T00:34:26;12.16;76.52
68842;SHT35;55849;48.482;2.332;2024-02-04T00:37:28;12.16;76.47
68842;SHT35;55849;48.482;2.332;2024-02-04T00:40:29;12.15;76.46
68842;SHT35;55849;48.482;2.332;2024-02-04T00:43:32;12.14;76.38
68842;SHT35;55849;48.482;2.332;2024-02-04T00:46:34;12.15;76.36
68842;SHT35;55849;48.482;2.332;2024-02-04T00:49:35;12.15;76.53
68842;SHT35;55849;48.482;2.332;2024-02-04T00:52:38;12.14;76.34
68842;SHT35;55849;48.482;2.332;2024-02-04T00:55:40;12.12;76.42
68842;SHT35;55849;48.482;2.332;2024-02-04T00:58:43;12.15;76.49
68842;SHT35;55849;48.482;2.332;2024-02-04T01:01:45;12.12;76.40
68842;SHT35;55849;48.482;2.332;2024-02-04T01:04:46;12.12;76.50
68842;SHT35;55849;48.482;2.332;2024-02-04T01:07:48;12.14;76.40
68842;SHT35;55849;48.482;2.332;2024-02-04T01:10:50;12.12;76.40
68842;SHT35;55849;48.482;2.332;2024-02-04T01:13:53;12.11;76.20
68842;SHT35;55849;48.482;2.332;2024-02-04T01:16:55;12.14;76.26
68842;SHT35;55849;48.482;2.332;2024-02-04T01:19:56;12.14;76.23
68842;SHT35;55849;48.482;2.332;2024-02-04T01:22:58;12.12;76.21
68842;SHT35;55849;48.482;2.332;2024-02-04T01:26:00;12.12;76.29
68842;SHT35;55849;48.482;2.332;2024-02-04T01:29:02;12.12;76.38
68842;SHT35;55849;48.482;2.332;2024-02-04T01:32:05;12.12;76.46
68842;SHT35;55849;48.482;2.332;2024-02-04T01:35:07;12.12;76.32
68842;SHT35;55849;48.482;2.332;2024-02-04T01:38:09;12.14;76.12
68842;SHT35;55849;48.482;2.332;2024-02-04T01:41:11;12.12;76.22
68842;SHT35;55849;48.482;2.332;2024-02-04T01:44:14;12.12;76.29
68842;SHT35;55849;48.482;2.332;2024-02-04T01:47:16;12.11;76.19
68842;SHT35;55849;48.482;2.332;2024-02-04T01:50:18;12.11;76.33
68842;SHT35;55849;48.482;2.332;2024-02-04T01:53:22;12.12;76.12
68842;SHT35;55849;48.482;2.332;2024-02-04T01:56:24;12.11;76.14
68842;SHT35;55849;48.482;2.332;2024-02-04T01:59:27;12.09;76.06
68842;SHT35;55849;48.482;2.332;2024-02-04T02:02:32;12.09;76.08
68842;SHT35;55849;48.482;2.332;2024-02-04T02:05:34;12.08;76.23
68842;SHT35;55849;48.482;2.332;2024-02-04T02:08:36;12.06;76.24
68842;SHT35;55849;48.482;2.332;2024-02-04T02:11:40;12.08;76.18
68842;SHT35;55849;48.482;2.332;2024-02-04T02:14:45;12.06;76.14
68842;SHT35;55849;48.482;2.332;2024-02-04T02:17:54;12.08;76.21
68842;SHT35;55849;48.482;2.332;2024-02-04T02:21:13;12.09;76.21
68842;SHT35;55849;48.482;2.332;2024-02-04T02:24:30;12.09;76.32
68842;SHT35;55849;48.482;2.332;2024-02-04T02:27:32;12.08;76.30
68842;SHT35;55849;48.482;2.332;2024-02-04T02:30:34;12.06;76.22
68842;SHT35;55849;48.482;2.332;2024-02-04T02:33:35;12.06;76.19
68842;SHT35;55849;48.482;2.332;2024-02-04T02:36:43;12.06;76.19
68842;SHT35;55849;48.482;2.332;2024-02-04T02:39:51;12.05;76.19
68842;SHT35;55849;48.482;2.332;2024-02-04T02:42:55;12.04;76.03
68842;SHT35;55849;48.482;2.332;2024-02-04T02:45:57;12.02;76.25
68842;SHT35;55849;48.482;2.332;2024-02-04T02:48:58;12.06;76.17
68842;SHT35;55849;48.482;2.332;2024-02-04T02:52:00;12.06;76.18
68842;SHT35;55849;48.482;2.332;2024-02-04T02:55:04;12.05;76.05
68842;SHT35;55849;48.482;2.332;2024-02-04T02:58:06;12.06;76.11
68842;SHT35;55849;48.482;2.332;2024-02-04T03:01:07;12.05;76.19
68842;SHT35;55849;48.482;2.332;2024-02-04T03:04:09;12.08;76.02
68842;SHT35;55849;48.482;2.332;2024-02-04T03:07:11;12.05;76.14
68842;SHT35;55849;48.482;2.332;2024-02-04T03:10:14;12.06;76.09
68842;SHT35;55849;48.482;2.332;2024-02-04T03:13:15;12.06;75.97
68842;SHT35;55849;48.482;2.332;2024-02-04T03:16:17;12.04;76.01
68842;SHT35;55849;48.482;2.332;2024-02-04T03:19:18;12.06;76.07
68842;SHT35;55849;48.482;2.332;2024-02-04T03:22:20;12.08;76.08
68842;SHT35;55849;48.482;2.332;2024-02-04T03:25:23;12.06;76.11
68842;SHT35;55849;48.482;2.332;2024-02-04T03:28:26;12.09;76.02
68842;SHT35;55849;48.482;2.332;2024-02-04T03:31:28;12.06;76.11
68842;SHT35;55849;48.482;2.332;2024-02-04T03:34:29;12.08;75.95
68842;SHT35;55849;48.482;2.332;2024-02-04T03:37:31;12.06;76.02
68842;SHT35;55849;48.482;2.332;2024-02-04T03:40:34;12.04;76.01
68842;SHT35;55849;48.482;2.332;2024-02-04T03:43:36;12.05;75.97
68842;SHT35;55849;48.482;2.332;2024-02-04T03:46:37;12.01;76.12
68842;SHT35;55849;48.482;2.332;2024-02-04T03:49:40;12.05;76.17
68842;SHT35;55849;48.482;2.332;2024-02-04T03:52:41;12.02;76.24
68842;SHT35;55849;48.482;2.332;2024-02-04T03:55:45;12.02;76.29
68842;SHT35;55849;48.482;2.332;2024-02-04T03:58:46;12.01;76.25
68842;SHT35;55849;48.482;2.332;2024-02-04T04:01:48;12.02;76.24
68842;SHT35;55849;48.482;2.332;2024-02-04T04:04:50;12.02;76.31
68842;SHT35;55849;48.482;2.332;2024-02-04T04:07:51;12.02;76.31
68842;SHT35;55849;48.482;2.332;2024-02-04T04:10:54;12.01;76.31
68842;SHT35;55849;48.482;2.332;2024-02-04T04:13:56;11.99;76.44
68842;SHT35;55849;48.482;2.332;2024-02-04T04:16:57;11.98;76.43
68842;SHT35;55849;48.482;2.332;2024-02-04T04:19:59;11.98;76.51
68842;SHT35;55849;48.482;2.332;2024-02-04T04:23:00;11.98;76.44
68842;SHT35;55849;48.482;2.332;2024-02-04T04:26:04;11.97;76.50
68842;SHT35;55849;48.482;2.332;2024-02-04T04:29:05;11.98;76.50
68842;SHT35;55849;48.482;2.332;2024-02-04T04:32:07;11.97;76.53
68842;SHT35;55849;48.482;2.332;2024-02-04T04:35:09;11.98;76.55
68842;SHT35;55849;48.482;2.332;2024-02-04T04:38:10;11.98;76.58
68842;SHT35;55849;48.482;2.332;2024-02-04T04:41:13;11.99;76.55
68842;SHT35;55849;48.482;2.332;2024-02-04T04:44:15;11.99;76.53
68842;SHT35;55849;48.482;2.332;2024-02-04T04:47:16;11.99;76.52
68842;SHT35;55849;48.482;2.332;2024-02-04T04:50:18;11.98;76.57
68842;SHT35;55849;48.482;2.332;2024-02-04T04:53:19;11.98;76.54
68842;SHT35;55849;48.482;2.332;2024-02-04T04:56:22;11.94;76.51
68842;SHT35;55849;48.482;2.332;2024-02-04T04:59:24;11.97;76.51
68842;SHT35;55849;48.482;2.332;2024-02-04T05:02:25;11.97;76.55
68842;SHT35;55849;48.482;2.332;2024-02-04T05:05:27;11.97;76.57
68842;SHT35;55849;48.482;2.332;2024-02-04T05:08:29;11.97;76.47
68842;SHT35;55849;48.482;2.332;2024-02-04T05:11:31;11.97;76.46
68842;SHT35;55849;48.482;2.332;2024-02-04T05:14:33;11.95;76.51
68842;SHT35;55849;48.482;2.332;2024-02-04T05:17:35;11.95;76.58
68842;SHT35;55849;48.482;2.332;2024-02-04T05:20:36;11.97;76.58
68842;SHT35;55849;48.482;2.332;2024-02-04T05:23:38;11.94;76.59
68842;SHT35;55849;48.482;2.332;2024-02-04T05:26:41;11.94;76.68
68842;SHT35;55849;48.482;2.332;2024-02-04T05:29:42;11.94;76.69
68842;SHT35;55849;48.482;2.332;2024-02-04T05:32:45;11.95;76.73
68842;SHT35;55849;48.482;2.332;2024-02-04T05:35:46;11.94;76.70
68842;SHT35;55849;48.482;2.332;2024-02-04T05:38:48;11.94;76.72
68842;SHT35;55849;48.482;2.332;2024-02-04T05:41:51;11.94;76.74
68842;SHT35;55849;48.482;2.332;2024-02-04T05:44:53;11.92;76.76
68842;SHT35;55849;48.482;2.332;2024-02-04T05:47:54;11.92;76.81
68842;SHT35;55849;48.482;2.332;2024-02-04T05:50:56;11.95;76.77
68842;SHT35;55849;48.482;2.332;2024-02-04T05:53:57;11.94;76.82
68842;SHT35;55849;48.482;2.332;2024-02-04T05:57:00;11.97;76.79
68842;SHT35;55849;48.482;2.332;2024-02-04T06:00:03;11.98;76.77
68842;SHT35;55849;48.482;2.332;2024-02-04T06:03:05;11.95;76.81
68842;SHT35;55849;48.482;2.332;2024-02-04T06:06:07;11.97;76.82
68842;SHT35;55849;48.482;2.332;2024-02-04T06:09:09;11.97;76.77
68842;SHT35;55849;48.482;2.332;2024-02-04T06:12:12;11.95;76.78
68842;SHT35;55849;48.482;2.332;2024-02-04T06:15:14;11.95;76.82
68842;SHT35;55849;48.482;2.332;2024-02-04T06:18:15;11.98;76.85
68842;SHT35;55849;48.482;2.332;2024-02-04T06:21:17;11.95;76.84
68842;SHT35;55849;48.482;2.332;2024-02-04T06:24:19;11.97;76.88
68842;SHT35;55849;48.482;2.332;2024-02-04T06:27:22;11.97;76.84
68842;SHT35;55849;48.482;2.332;2024-02-04T06:30:24;11.98;76.85
68842;SHT35;55849;48.482;2.332;2024-02-04T06:33:25;11.95;76.89
68842;SHT35;55849;48.482;2.332;2024-02-04T06:36:27;11.97;76.88
68842;SHT35;55849;48.482;2.332;2024-02-04T06:39:29;11.97;76.92
68842;SHT35;55849;48.482;2.332;2024-02-04T06:42:32;11.94;76.94
68842;SHT35;55849;48.482;2.332;2024-02-04T06:45:33;11.94;76.95
68842;SHT35;55849;48.482;2.332;2024-02-04T06:48:35;11.94;76.97
68842;SHT35;55849;48.482;2.332;2024-02-04T06:51:36;11.94;77.01
68842;SHT35;55849;48.482;2.332;2024-02-04T06:54:38;11.94;76.99
68842;SHT35;55849;48.482;2.332;2024-02-04T06:57:41;11.91;76.96
68842;SHT35;55849;48.482;2.332;2024-02-04T07:00:42;11.95;76.98
68842;SHT35;55849;48.482;2.332;2024-02-04T07:03:44;11.94;77.09
68842;SHT35;55849;48.482;2.332;2024-02-04T07:06:46;11.91;77.10
68842;SHT35;55849;48.482;2.332;2024-02-04T07:09:47;11.91;77.07
68842;SHT35;55849;48.482;2.332;2024-02-04T07:12:50;11.92;77.05
68842;SHT35;55849;48.482;2.332;2024-02-04T07:15:52;11.92;77.10
68842;SHT35;55849;48.482;2.332;2024-02-04T07:18:55;11.92;77.05
68842;SHT35;55849;48.482;2.332;2024-02-04T07:21:56;11.94;77.10
68842;SHT35;55849;48.482;2.332;2024-02-04T07:24:58;11.95;77.09
68842;SHT35;55849;48.482;2.332;2024-02-04T07:28:02;11.94;77.12
68842;SHT35;55849;48.482;2.332;2024-02-04T07:31:04;11.91;77.13
68842;SHT35;55849;48.482;2.332;2024-02-04T07:34:06;11.91;77.20
68842;SHT35;55849;48.482;2.332;2024-02-04T07:37:08;11.91;77.18
68842;SHT35;55849;48.482;2.332;2024-02-04T07:40:10;11.92;77.15
68842;SHT35;55849;48.482;2.332;2024-02-04T07:43:13;11.92;77.16
68842;SHT35;55849;48.482;2.332;2024-02-04T07:46:14;11.94;77.15
68842;SHT35;55849;48.482;2.332;2024-02-04T07:49:16;11.91;77.17
68842;SHT35;55849;48.482;2.332;2024-02-04T07:52:18;11.91;77.13
68842;SHT35;55849;48.482;2.332;2024-02-04T07:55:20;11.92;77.14
68842;SHT35;55849;48.482;2.332;2024-02-04T07:58:23;11.94;77.17
68842;SHT35;55849;48.482;2.332;2024-02-04T08:01:24;11.95;77.21
68842;SHT35;55849;48.482;2.332;2024-02-04T08:04:26;11.95;77.13
68842;SHT35;55849;48.482;2.332;2024-02-04T08:07:27;11.97;77.15
68842;SHT35;55849;48.482;2.332;2024-02-04T08:10:29;11.94;77.18
68842;SHT35;55849;48.482;2.332;2024-02-04T08:13:32;11.95;77.12
68842;SHT35;55849;48.482;2.332;2024-02-04T08:16:34;11.98;77.19
68842;SHT35;55849;48.482;2.332;2024-02-04T08:19:35;11.95;77.13
68842;SHT35;55849;48.482;2.332;2024-02-04T08:22:37;11.95;77.26
68842;SHT35;55849;48.482;2.332;2024-02-04T08:25:38;11.95;77.25
68842;SHT35;55849;48.482;2.332;2024-02-04T08:28:41;11.99;77.30
68842;SHT35;55849;48.482;2.332;2024-02-04T08:31:43;11.95;77.29
68842;SHT35;55849;48.482;2.332;2024-02-04T08:34:46;11.97;77.36
68842;SHT35;55849;48.482;2.332;2024-02-04T08:37:48;11.99;77.36
68842;SHT35;55849;48.482;2.332;2024-02-04T08:40:50;12.02;77.33
68842;SHT35;55849;48.482;2.332;2024-02-04T08:43:53;12.02;77.32
68842;SHT35;55849;48.482;2.332;2024-02-04T08:46:54;12.05;77.24
68842;SHT35;55849;48.482;2.332;2024-02-04T08:49:56;12.05;77.29
68842;SHT35;55849;48.482;2.332;2024-02-04T08:52:59;12.08;77.27
68842;SHT35;55849;48.482;2.332;2024-02-04T08:56:01;12.11;77.17
68842;SHT35;55849;48.482;2.332;2024-02-04T08:59:04;12.09;77.15
68842;SHT35;55849;48.482;2.332;2024-02-04T09:02:06;12.08;77.09
68842;SHT35;55849;48.482;2.332;2024-02-04T09:05:08;12.11;77.18
68842;SHT35;55849;48.482;2.332;2024-02-04T09:08:10;12.14;77.20
68842;SHT35;55849;48.482;2.332;2024-02-04T09:11:12;12.18;77.13
68842;SHT35;55849;48.482;2.332;2024-02-04T09:14:20;12.15;77.16
68842;SHT35;55849;48.482;2.332;2024-02-04T09:17:21;12.19;77.21
68842;SHT35;55849;48.482;2.332;2024-02-04T09:20:23;12.19;77.12
68842;SHT35;55849;48.482;2.332;2024-02-04T09:23:25;12.24;77.06
68842;SHT35;55849;48.482;2.332;2024-02-04T09:26:26;12.26;77.02
68842;SHT35;55849;48.482;2.332;2024-02-04T09:29:29;12.28;77.02
68842;SHT35;55849;48.482;2.332;2024-02-04T09:32:31;12.29;76.95
68842;SHT35;55849;48.482;2.332;2024-02-04T09:35:32;12.29;76.87
68842;SHT35;55849;48.482;2.332;2024-02-04T09:38:34;12.32;76.92
68842;SHT35;55849;48.482;2.332;2024-02-04T09:41:36;12.33;76.80
68842;SHT35;55849;48.482;2.332;2024-02-04T09:44:39;12.33;76.88
68842;SHT35;55849;48.482;2.332;2024-02-04T09:47:42;12.36;76.81
68842;SHT35;55849;48.482;2.332;2024-02-04T09:50:46;12.37;76.84
68842;SHT35;55849;48.482;2.332;2024-02-04T09:53:52;12.36;76.88
68842;SHT35;55849;48.482;2.332;2024-02-04T09:56:54;12.39;76.75
68842;SHT35;55849;48.482;2.332;2024-02-04T09:59:57;12.40;76.84
68842;SHT35;55849;48.482;2.332;2024-02-04T10:02:59;12.42;76.68
68842;SHT35;55849;48.482;2.332;2024-02-04T10:06:01;12.40;76.54
68842;SHT35;55849;48.482;2.332;2024-02-04T10:09:03;12.43;76.76
68842;SHT35;55849;48.482;2.332;2024-02-04T10:12:05;12.44;76.66
68842;SHT35;55849;48.482;2.332;2024-02-04T10:15:10;12.43;76.85
68842;SHT35;55849;48.482;2.332;2024-02-04T10:18:13;12.44;76.89
68842;SHT35;55849;48.482;2.332;2024-02-04T10:21:16;12.46;76.76
68842;SHT35;55849;48.482;2.332;2024-02-04T10:24:18;12.44;76.72
68842;SHT35;55849;48.482;2.332;2024-02-04T10:27:20;12.46;76.82
68842;SHT35;55849;48.482;2.332;2024-02-04T10:30:23;12.43;76.78
68842;SHT35;55849;48.482;2.332;2024-02-04T10:33:24;12.44;76.89
68842;SHT35;55849;48.482;2.332;2024-02-04T10:36:26;12.46;76.87
68842;SHT35;55849;48.482;2.332;2024-02-04T10:39:27;12.46;76.81
68842;SHT35;55849;48.482;2.332;2024-02-04T10:42:31;12.46;76.77
68842;SHT35;55849;48.482;2.332;2024-02-04T10:45:36;12.47;76.75
68842;SHT35;55849;48.482;2.332;2024-02-04T10:48:42;12.46;76.85
68842;SHT35;55849;48.482;2.332;2024-02-04T10:51:45;12.44;76.82
68842;SHT35;55849;48.482;2.332;2024-02-04T10:54:48;12.49;76.98
68842;SHT35;55849;48.482;2.332;2024-02-04T10:57:50;12.46;76.78
68842;SHT35;55849;48.482;2.332;2024-02-04T11:00:53;12.46;76.88
68842;SHT35;55849;48.482;2.332;2024-02-04T11:03:56;12.50;76.78
68842;SHT35;55849;48.482;2.332;2024-02-04T11:06:59;12.51;76.78
68842;SHT35;55849;48.482;2.332;2024-02-04T11:10:02;12.51;76.86
68842;SHT35;55849;48.482;2.332;2024-02-04T11:13:05;12.53;76.78
68842;SHT35;55849;48.482;2.332;2024-02-04T11:19:56;12.51;76.72
68842;SHT35;55849;48.482;2.332;2024-02-04T11:23:19;12.51;76.89
68842;SHT35;55849;48.482;2.332;2024-02-04T11:26:24;12.51;76.88
68842;SHT35;55849;48.482;2.332;2024-02-04T11:29:26;12.53;77.12
68842;SHT35;55849;48.482;2.332;2024-02-04T11:32:28;12.54;76.87
68842;SHT35;55849;48.482;2.332;2024-02-04T11:35:32;12.57;76.93
68842;SHT35;55849;48.482;2.332;2024-02-04T11:38:36;12.57;76.82
68842;SHT35;55849;48.482;2.332;2024-02-04T11:41:44;12.56;76.62
68842;SHT35;55849;48.482;2.332;2024-02-04T11:44:46;12.57;76.70
68842;SHT35;55849;48.482;2.332;2024-02-04T11:47:48;12.59;76.81
68842;SHT35;55849;48.482;2.332;2024-02-04T11:51:01;12.57;76.78
68842;SHT35;55849;48.482;2.332;2024-02-04T11:54:02;12.59;76.98
68842;SHT35;55849;48.482;2.332;2024-02-04T11:57:05;12.60;77.04
68842;SHT35;55849;48.482;2.332;2024-02-04T12:00:08;12.61;76.89
68842;SHT35;55849;48.482;2.332;2024-02-04T12:03:11;12.63;76.64
68842;SHT35;55849;48.482;2.332;2024-02-04T12:06:14;12.61;76.66
68842;SHT35;55849;48.482;2.332;2024-02-04T12:09:17;12.63;76.80
68842;SHT35;55849;48.482;2.332;2024-02-04T12:12:19;12.63;76.68
68842;SHT35;55849;48.482;2.332;2024-02-04T12:15:21;12.61;76.83
68842;SHT35;55849;48.482;2.332;2024-02-04T12:18:23;12.60;76.73
68842;SHT35;55849;48.482;2.332;2024-02-04T12:21:27;12.60;76.70
68842;SHT35;55849;48.482;2.332;2024-02-04T12:24:29;12.59;76.83
68842;SHT35;55849;48.482;2.332;2024-02-04T12:27:31;12.60;76.71
68842;SHT35;55849;48.482;2.332;2024-02-04T12:30:32;12.60;76.77
68842;SHT35;55849;48.482;2.332;2024-02-04T12:33:34;12.61;76.77
68842;SHT35;55849;48.482;2.332;2024-02-04T12:36:39;12.59;76.58
68842;SHT35;55849;48.482;2.332;2024-02-04T12:39:41;12.61;76.67
68842;SHT35;55849;48.482;2.332;2024-02-04T12:42:42;12.63;76.69
68842;SHT35;55849;48.482;2.332;2024-02-04T12:45:45;12.60;76.65
68842;SHT35;55849;48.482;2.332;2024-02-04T12:48:51;12.59;76.53
68842;SHT35;55849;48.482;2.332;2024-02-04T12:52:04;12.61;76.18
68842;SHT35;55849;48.482;2.332;2024-02-04T12:55:05;12.59;76.11
68842;SHT35;55849;48.482;2.332;2024-02-04T12:58:08;12.59;76.17
68842;SHT35;55849;48.482;2.332;2024-02-04T13:01:12;12.59;76.03
68842;SHT35;55849;48.482;2.332;2024-02-04T13:04:14;12.57;76.30
68842;SHT35;55849;48.482;2.332;2024-02-04T13:07:18;12.61;76.17
68842;SHT35;55849;48.482;2.332;2024-02-04T13:10:19;12.61;75.85
68842;SHT35;55849;48.482;2.332;2024-02-04T13:13:21;12.63;75.64
68842;SHT35;55849;48.482;2.332;2024-02-04T13:16:27;12.61;75.64
68842;SHT35;55849;48.482;2.332;2024-02-04T13:19:33;12.63;75.95
68842;SHT35;55849;48.482;2.332;2024-02-04T13:22:37;12.63;75.85
68842;SHT35;55849;48.482;2.332;2024-02-04T13:25:39;12.63;75.92
68842;SHT35;55849;48.482;2.332;2024-02-04T13:28:40;12.63;75.56
68842;SHT35;55849;48.482;2.332;2024-02-04T13:31:42;12.65;75.55
68842;SHT35;55849;48.482;2.332;2024-02-04T13:34:43;12.65;75.41
68842;SHT35;55849;48.482;2.332;2024-02-04T13:37:47;12.64;75.33
68842;SHT35;55849;48.482;2.332;2024-02-04T13:40:52;12.64;75.14
68842;SHT35;55849;48.482;2.332;2024-02-04T13:43:54;12.63;75.09
68842;SHT35;55849;48.482;2.332;2024-02-04T13:46:55;12.63;74.96
68842;SHT35;55849;48.482;2.332;2024-02-04T13:49:57;12.63;75.26
68842;SHT35;55849;48.482;2.332;2024-02-04T13:53:00;12.64;75.11
68842;SHT35;55849;48.482;2.332;2024-02-04T13:56:02;12.60;74.45
68842;SHT35;55849;48.482;2.332;2024-02-04T13:59:05;12.59;74.36
68842;SHT35;55849;48.482;2.332;2024-02-04T14:02:07;12.57;74.75
68842;SHT35;55849;48.482;2.332;2024-02-04T14:05:09;12.56;74.83
68842;SHT35;55849;48.482;2.332;2024-02-04T14:08:12;12.54;75.06
68842;SHT35;55849;48.482;2.332;2024-02-04T14:11:14;12.54;74.87
68842;SHT35;55849;48.482;2.332;2024-02-04T14:14:15;12.54;74.35
68842;SHT35;55849;48.482;2.332;2024-02-04T14:17:17;12.54;74.53
68842;SHT35;55849;48.482;2.332;2024-02-04T14:20:18;12.53;74.50
68842;SHT35;55849;48.482;2.332;2024-02-04T14:23:21;12.53;74.58
68842;SHT35;55849;48.482;2.332;2024-02-04T14:26:23;12.51;74.55
68842;SHT35;55849;48.482;2.332;2024-02-04T14:29:25;12.54;74.52
68842;SHT35;55849;48.482;2.332;2024-02-04T14:32:27;12.51;74.42
68842;SHT35;55849;48.482;2.332;2024-02-04T14:35:28;12.54;74.44
68842;SHT35;55849;48.482;2.332;2024-02-04T14:38:32;12.54;74.77
68842;SHT35;55849;48.482;2.332;2024-02-04T14:41:34;12.54;73.84
68842;SHT35;55849;48.482;2.332;2024-02-04T14:44:36;12.53;73.80
68842;SHT35;55849;48.482;2.332;2024-02-04T14:47:38;12.54;73.84
68842;SHT35;55849;48.482;2.332;2024-02-04T14:50:40;12.49;73.42
68842;SHT35;55849;48.482;2.332;2024-02-04T14:53:43;12.49;73.68
68842;SHT35;55849;48.482;2.332;2024-02-04T14:56:45;12.46;73.86
68842;SHT35;55849;48.482;2.332;2024-02-04T14:59:46;12.47;73.87
68842;SHT35;55849;48.482;2.332;2024-02-04T15:02:48;12.47;73.68
68842;SHT35;55849;48.482;2.332;2024-02-04T15:05:50;12.46;73.89
68842;SHT35;55849;48.482;2.332;2024-02-04T15:08:53;12.42;73.89
68842;SHT35;55849;48.482;2.332;2024-02-04T15:11:55;12.46;73.79
68842;SHT35;55849;48.482;2.332;2024-02-04T15:14:57;12.44;73.60
68842;SHT35;55849;48.482;2.332;2024-02-04T15:18:00;12.47;74.10
68842;SHT35;55849;48.482;2.332;2024-02-04T15:21:02;12.49;73.86
68842;SHT35;55849;48.482;2.332;2024-02-04T15:24:06;12.47;73.74
68842;SHT35;55849;48.482;2.332;2024-02-04T15:27:08;12.47;73.46
68842;SHT35;55849;48.482;2.332;2024-02-04T15:30:12;12.44;73.44
68842;SHT35;55849;48.482;2.332;2024-02-04T15:33:14;12.44;73.64
68842;SHT35;55849;48.482;2.332;2024-02-04T15:36:16;12.43;73.49
68842;SHT35;55849;48.482;2.332;2024-02-04T15:39:19;12.46;73.89
68842;SHT35;55849;48.482;2.332;2024-02-04T15:42:21;12.46;73.69
68842;SHT35;55849;48.482;2.332;2024-02-04T15:45:23;12.42;73.72
68842;SHT35;55849;48.482;2.332;2024-02-04T15:48:28;12.44;73.46
68842;SHT35;55849;48.482;2.332;2024-02-04T15:51:31;12.43;73.89
68842;SHT35;55849;48.482;2.332;2024-02-04T15:54:35;12.42;73.67
68842;SHT35;55849;48.482;2.332;2024-02-04T15:57:38;12.44;73.85
68842;SHT35;55849;48.482;2.332;2024-02-04T16:00:41;12.43;73.93
68842;SHT35;55849;48.482;2.332;2024-02-04T16:03:43;12.42;73.45
68842;SHT35;55849;48.482;2.332;2024-02-04T16:06:46;12.42;73.28
68842;SHT35;55849;48.482;2.332;2024-02-04T16:09:51;12.37;73.40
68842;SHT35;55849;48.482;2.332;2024-02-04T16:12:54;12.34;73.44
68842;SHT35;55849;48.482;2.332;2024-02-04T16:15:58;12.36;73.31
68842;SHT35;55849;48.482;2.332;2024-02-04T16:19:03;12.36;73.85
68842;SHT35;55849;48.482;2.332;2024-02-04T16:22:08;12.34;73.55
68842;SHT35;55849;48.482;2.332;2024-02-04T16:25:11;12.33;73.63
68842;SHT35;55849;48.482;2.332;2024-02-04T16:28:14;12.32;73.45
68842;SHT35;55849;48.482;2.332;2024-02-04T16:31:17;12.34;73.90
68842;SHT35;55849;48.482;2.332;2024-02-04T16:34:19;12.34;73.83
68842;SHT35;55849;48.482;2.332;2024-02-04T16:37:20;12.36;73.66
68842;SHT35;55849;48.482;2.332;2024-02-04T16:40:23;12.33;73.46
68842;SHT35;55849;48.482;2.332;2024-02-04T16:43:25;12.32;73.42
68842;SHT35;55849;48.482;2.332;2024-02-04T16:46:27;12.28;73.48
68842;SHT35;55849;48.482;2.332;2024-02-04T16:49:28;12.26;73.59
68842;SHT35;55849;48.482;2.332;2024-02-04T16:52:31;12.26;73.48
68842;SHT35;55849;48.482;2.332;2024-02-04T16:55:33;12.24;73.79
68842;SHT35;55849;48.482;2.332;2024-02-04T16:58:35;12.25;73.99
68842;SHT35;55849;48.482;2.332;2024-02-04T17:01:37;12.24;73.74
68842;SHT35;55849;48.482;2.332;2024-02-04T17:04:39;12.26;73.71
68842;SHT35;55849;48.482;2.332;2024-02-04T17:07:41;12.26;73.97
68842;SHT35;55849;48.482;2.332;2024-02-04T17:10:44;12.25;74.12
68842;SHT35;55849;48.482;2.332;2024-02-04T17:13:48;12.26;73.90
68842;SHT35;55849;48.482;2.332;2024-02-04T17:16:58;12.22;73.81
68842;SHT35;55849;48.482;2.332;2024-02-04T17:20:06;12.24;73.66
68842;SHT35;55849;48.482;2.332;2024-02-04T17:23:12;12.22;73.71
68842;SHT35;55849;48.482;2.332;2024-02-04T17:26:17;12.24;74.03
68842;SHT35;55849;48.482;2.332;2024-02-04T17:29:25;12.21;73.89
68842;SHT35;55849;48.482;2.332;2024-02-04T17:32:27;12.22;73.94
68842;SHT35;55849;48.482;2.332;2024-02-04T17:35:31;12.24;73.91
68842;SHT35;55849;48.482;2.332;2024-02-04T17:38:32;12.22;74.00
68842;SHT35;55849;48.482;2.332;2024-02-04T17:41:35;12.24;74.24
68842;SHT35;55849;48.482;2.332;2024-02-04T17:44:37;12.22;73.75
68842;SHT35;55849;48.482;2.332;2024-02-04T17:47:41;12.21;73.88
68842;SHT35;55849;48.482;2.332;2024-02-04T17:50:43;12.19;73.60
68842;SHT35;55849;48.482;2.332;2024-02-04T17:53:45;12.19;73.82
68842;SHT35;55849;48.482;2.332;2024-02-04T17:56:48;12.19;73.69
68842;SHT35;55849;48.482;2.332;2024-02-04T17:59:49;12.21;73.71
68842;SHT35;55849;48.482;2.332;2024-02-04T18:02:53;12.21;73.89
68842;SHT35;55849;48.482;2.332;2024-02-04T18:05:54;12.19;73.79
68842;SHT35;55849;48.482;2.332;2024-02-04T18:08:56;12.19;73.61
68842;SHT35;55849;48.482;2.332;2024-02-04T18:11:59;12.18;73.84
68842;SHT35;55849;48.482;2.332;2024-02-04T18:15:00;12.18;73.59
68842;SHT35;55849;48.482;2.332;2024-02-04T18:18:03;12.16;73.89
68842;SHT35;55849;48.482;2.332;2024-02-04T18:21:05;12.18;73.77
68842;SHT35;55849;48.482;2.332;2024-02-04T18:24:09;12.15;74.01
68842;SHT35;55849;48.482;2.332;2024-02-04T18:27:12;12.15;73.71
68842;SHT35;55849;48.482;2.332;2024-02-04T18:30:13;12.14;73.86
68842;SHT35;55849;48.482;2.332;2024-02-04T18:33:17;12.11;73.85
68842;SHT35;55849;48.482;2.332;2024-02-04T18:36:20;12.12;74.02
68842;SHT35;55849;48.482;2.332;2024-02-04T18:39:22;12.12;73.91
68842;SHT35;55849;48.482;2.332;2024-02-04T18:42:26;12.09;73.99
68842;SHT35;55849;48.482;2.332;2024-02-04T18:45:27;12.06;73.98
68842;SHT35;55849;48.482;2.332;2024-02-04T18:48:29;12.06;74.28
68842;SHT35;55849;48.482;2.332;2024-02-04T18:51:31;12.08;73.99
68842;SHT35;55849;48.482;2.332;2024-02-04T18:54:33;12.04;74.11
68842;SHT35;55849;48.482;2.332;2024-02-04T18:57:36;12.05;73.96
68842;SHT35;55849;48.482;2.332;2024-02-04T19:00:40;12.06;74.08
68842;SHT35;55849;48.482;2.332;2024-02-04T19:03:41;12.05;73.98
68842;SHT35;55849;48.482;2.332;2024-02-04T19:06:43;12.02;73.93
68842;SHT35;55849;48.482;2.332;2024-02-04T19:09:48;12.04;73.99
68842;SHT35;55849;48.482;2.332;2024-02-04T19:12:52;12.02;73.95
68842;SHT35;55849;48.482;2.332;2024-02-04T19:15:53;12.01;74.06